Time;durP1;ratioP1;P1;durP2;ratioP2;P2;SDS_P1;SDS_P2;PMS_P1;PMS_P2;Temp;Humidity;BMP_temperature;BMP_pressure;BME280_temperature;BME280_humidity;BME280_pressure;Samples;Min_cycle;Max_cycle;Signal;HPM_P1;HPM_P2
2022/06/21 00:01:28;;;;;;;7.00;2.70;;;13.30;99.90;;;;;;5073853;28;20071;-70
2022/06/21 00:03:55;;;;;;;9.93;2.60;;;13.30;99.90;;;;;;5073449;28;20375;-70
2022/06/21 00:06:23;;;;;;;7.70;2.60;;;13.20;99.90;;;;;;5100337;28;20051;-70
2022/06/21 00:08:49;;;;;;;9.13;2.78;;;13.10;99.90;;;;;;5106254;28;20077;-70
2022/06/21 00:11:25;;;;;;;10.32;2.60;;;13.10;99.90;;;;;;5081185;28;20097;-70
2022/06/21 00:13:51;;;;;;;9.57;2.60;;;13.10;99.90;;;;;;5093050;28;20044;-71
2022/06/21 00:16:18;;;;;;;9.02;2.80;;;13.10;99.90;;;;;;5108482;28;20048;-70
2022/06/21 00:18:46;;;;;;;7.60;2.25;;;13.10;99.90;;;;;;5109712;28;20096;-70
2022/06/21 00:21:25;;;;;;;7.18;2.60;;;13.10;99.90;;;;;;5078808;28;20036;-71
2022/06/21 00:23:52;;;;;;;8.13;2.50;;;13.10;99.90;;;;;;5100918;28;20043;-70
2022/06/21 00:26:21;;;;;;;7.28;2.67;;;13.00;99.90;;;;;;5107394;28;20110;-70
2022/06/21 00:28:46;;;;;;;9.00;2.83;;;13.00;99.90;;;;;;5091379;28;20047;-70
2022/06/21 00:31:19;;;;;;;7.75;2.85;;;12.90;99.90;;;;;;5071784;28;20138;-70
2022/06/21 00:33:45;;;;;;;11.00;2.97;;;12.90;99.90;;;;;;5090853;28;20047;-70
2022/06/21 00:36:35;;;;;;;8.88;3.15;;;12.90;99.90;;;;;;5087206;28;20050;-70
2022/06/21 00:39:06;;;;;;;8.52;2.63;;;12.90;99.90;;;;;;5102551;28;20092;-70
2022/06/21 00:41:40;;;;;;;9.30;2.90;;;12.90;99.90;;;;;;5077646;28;20368;-70
2022/06/21 00:44:13;;;;;;;6.95;2.75;;;12.80;99.90;;;;;;5081474;28;20550;-70
2022/06/21 00:46:43;;;;;;;11.05;3.25;;;12.80;99.90;;;;;;5104820;28;20431;-70
2022/06/21 00:49:26;;;;;;;9.20;2.70;;;12.70;99.90;;;;;;5089590;28;20094;-70
2022/06/21 00:52:04;;;;;;;8.75;2.70;;;12.70;99.90;;;;;;5093457;28;20134;-70
2022/06/21 00:54:48;;;;;;;;;;;12.60;99.90;;;;;;5109160;28;20620;-70
2022/06/21 00:57:17;;;;;;;10.45;2.60;;;12.50;99.90;;;;;;5106029;28;20397;-70
2022/06/21 00:59:46;;;;;;;8.77;3.00;;;12.50;99.90;;;;;;5109137;28;20043;-70
2022/06/21 01:02:19;;;;;;;8.75;2.63;;;12.50;99.90;;;;;;5089157;28;20047;-70
2022/06/21 01:04:50;;;;;;;10.10;2.80;;;12.40;99.90;;;;;;5082805;28;20126;-70
2022/06/21 01:07:16;;;;;;;7.93;2.92;;;12.40;99.90;;;;;;5108569;28;20673;-70
2022/06/21 01:10:07;;;;;;;7.93;2.80;;;12.40;99.90;;;;;;5089564;28;20043;-70
2022/06/21 01:12:47;;;;;;;8.40;3.00;;;12.30;99.90;;;;;;5108510;28;20398;-70
2022/06/21 01:15:18;;;;;;;11.73;2.92;;;12.30;99.90;;;;;;5089101;28;20490;-70
2022/06/21 01:17:46;;;;;;;9.35;3.08;;;12.30;99.90;;;;;;5110717;28;20047;-70
2022/06/21 01:20:22;;;;;;;10.68;3.42;;;12.30;99.90;;;;;;5089224;28;20040;-70
2022/06/21 01:23:10;;;;;;;7.28;2.75;;;12.30;99.90;;;;;;5093125;28;20048;-70
2022/06/21 01:25:54;;;;;;;9.60;3.20;;;12.30;99.90;;;;;;5091083;28;20040;-69
2022/06/21 01:28:21;;;;;;;12.85;3.42;;;12.30;99.90;;;;;;5109365;28;20104;-70
2022/06/21 01:30:51;;;;;;;6.25;2.63;;;12.30;99.90;;;;;;5085067;28;20044;-71
2022/06/21 01:33:25;;;;;;;7.20;2.97;;;12.30;99.90;;;;;;5070254;28;20067;-70
2022/06/21 01:35:56;;;;;;;9.77;2.88;;;12.20;99.90;;;;;;5098874;28;20398;-70
2022/06/21 01:38:30;;;;;;;9.55;3.45;;;12.20;99.90;;;;;;5071780;28;20048;-71
2022/06/21 01:41:06;;;;;;;7.40;3.05;;;12.20;99.90;;;;;;5094806;28;20097;-70
2022/06/21 01:43:33;;;;;;;8.63;3.05;;;12.10;99.90;;;;;;5100644;28;20043;-70
2022/06/21 01:46:03;;;;;;;7.75;3.22;;;12.10;99.90;;;;;;5104885;28;20054;-70
2022/06/21 01:48:37;;;;;;;11.00;3.42;;;12.10;99.90;;;;;;5106074;28;20130;-70
2022/06/21 01:51:10;;;;;;;6.47;2.90;;;12.00;99.90;;;;;;5083523;28;20047;-70
2022/06/21 01:53:37;;;;;;;8.40;2.50;;;12.00;99.90;;;;;;5077526;28;20059;-70
2022/06/21 01:56:25;;;;;;;8.35;3.20;;;12.00;99.90;;;;;;5109554;28;20118;-70
2022/06/21 01:59:23;;;;;;;9.70;3.17;;;12.00;99.90;;;;;;5106306;28;20043;-70
2022/06/21 02:02:28;;;;;;;6.97;3.10;;;11.80;99.90;;;;;;5091568;28;20077;-70
2022/06/21 02:05:08;;;;;;;8.63;3.30;;;11.80;99.90;;;;;;4997559;28;20565;-70
2022/06/21 02:07:39;;;;;;;8.85;3.70;;;11.70;99.90;;;;;;5073686;28;20112;-70
2022/06/21 02:10:11;;;;;;;7.82;3.60;;;11.70;99.90;;;;;;5090617;28;20043;-70
2022/06/21 02:12:59;;;;;;;8.70;3.90;;;11.70;99.90;;;;;;5105840;28;20060;-70
2022/06/21 02:15:35;;;;;;;10.32;4.30;;;11.60;99.90;;;;;;5091139;28;20567;-70
2022/06/21 02:18:02;;;;;;;7.95;3.78;;;11.60;99.90;;;;;;5109630;28;20562;-70
2022/06/21 02:21:06;;;;;;;5.82;3.80;;;11.50;99.90;;;;;;5089504;28;20044;-70
2022/06/21 02:23:32;;;;;;;9.73;4.72;;;11.50;99.90;;;;;;5070994;28;20055;-70
2022/06/21 02:25:58;;;;;;;7.90;4.20;;;11.50;99.90;;;;;;5089640;28;20184;-70
2022/06/21 02:28:28;;;;;;;7.75;4.30;;;11.50;99.90;;;;;;5074850;28;20047;-70
2022/06/21 02:30:54;;;;;;;10.70;4.32;;;11.50;99.90;;;;;;5089812;28;20043;-70
2022/06/21 02:33:23;;;;;;;9.70;4.75;;;11.40;99.90;;;;;;5109487;28;20130;-70
2022/06/21 02:35:53;;;;;;;7.32;4.45;;;11.30;99.90;;;;;;5108240;28;20059;-70
2022/06/21 02:38:23;;;;;;;9.25;4.82;;;11.30;99.90;;;;;;5087819;28;20100;-70
2022/06/21 02:40:58;;;;;;;7.50;4.00;;;11.20;99.90;;;;;;5107287;28;20027;-70
2022/06/21 02:43:30;;;;;;;8.73;3.92;;;11.20;99.90;;;;;;5104023;28;20040;-69
2022/06/21 02:46:02;;;;;;;6.80;4.00;;;11.20;99.90;;;;;;5078080;28;20131;-70
2022/06/21 02:48:33;;;;;;;6.70;4.00;;;11.10;99.90;;;;;;5091011;28;20039;-70
2022/06/21 02:51:05;;;;;;;7.75;4.50;;;11.00;99.90;;;;;;5069818;28;20082;-70
2022/06/21 02:53:36;;;;;;;13.90;5.25;;;11.00;99.90;;;;;;5076654;28;20059;-70
2022/06/21 02:56:20;;;;;;;8.50;5.28;;;11.00;99.90;;;;;;5087921;28;20035;-70
2022/06/21 02:58:49;;;;;;;7.30;3.60;;;11.10;99.90;;;;;;5100388;28;20038;-70
2022/06/21 03:01:25;;;;;;;7.18;3.92;;;11.10;99.90;;;;;;5072770;28;20059;-70
2022/06/21 03:03:51;;;;;;;8.47;4.27;;;11.10;99.90;;;;;;5106021;28;20069;-70
2022/06/21 03:06:19;;;;;;;8.52;4.00;;;11.00;99.90;;;;;;5101842;28;20027;-70
2022/06/21 03:08:57;;;;;;;7.22;4.47;;;11.10;99.90;;;;;;5109690;28;20051;-70
2022/06/21 03:11:27;;;;;;;12.55;5.38;;;11.00;99.90;;;;;;5107020;28;20043;-70
2022/06/21 03:13:55;;;;;;;7.22;4.90;;;11.00;99.90;;;;;;5088927;28;20390;-70
2022/06/21 03:16:22;;;;;;;9.55;4.80;;;10.90;99.90;;;;;;5088635;28;20051;-70
2022/06/21 03:18:54;;;;;;;9.88;4.80;;;10.90;99.90;;;;;;5100873;28;20158;-70
2022/06/21 03:21:32;;;;;;;7.65;4.30;;;10.90;99.90;;;;;;5070916;28;20157;-71
2022/06/21 03:24:01;;;;;;;7.15;3.70;;;10.90;99.90;;;;;;5070830;28;20438;-71
2022/06/21 03:26:28;;;;;;;5.00;4.00;;;10.90;99.90;;;;;;5070032;28;20510;-70
2022/06/21 03:28:54;;;;;;;4.47;3.58;;;10.90;99.90;;;;;;5099282;28;20039;-71
2022/06/21 03:31:35;;;;;;;5.40;3.60;;;10.80;99.90;;;;;;5108081;28;20054;-71
2022/06/21 03:34:09;;;;;;;5.18;3.40;;;10.80;99.90;;;;;;5078097;28;20397;-71
2022/06/21 03:36:37;;;;;;;4.43;2.70;;;10.70;99.90;;;;;;5087402;28;20047;-70
2022/06/21 03:39:16;;;;;;;3.95;3.15;;;10.70;99.90;;;;;;5087663;28;20458;-70
2022/06/21 03:41:46;;;;;;;3.95;2.90;;;10.70;99.90;;;;;;5091012;28;20067;-71
2022/06/21 03:44:37;;;;;;;3.90;3.10;;;10.70;99.90;;;;;;5078097;28;20040;-71
2022/06/21 03:47:03;;;;;;;3.50;2.83;;;10.70;99.90;;;;;;5070798;28;20414;-71
2022/06/21 03:49:35;;;;;;;4.53;2.90;;;10.60;99.90;;;;;;5081142;28;20047;-70
2022/06/21 03:52:06;;;;;;;3.33;2.65;;;10.60;99.90;;;;;;5089578;28;20028;-71
2022/06/21 03:54:47;;;;;;;4.18;3.00;;;10.60;99.90;;;;;;5089003;28;20039;-71
2022/06/21 03:57:22;;;;;;;4.85;3.05;;;10.60;99.90;;;;;;5092244;28;20093;-71
2022/06/21 03:59:59;;;;;;;5.63;4.00;;;10.70;99.90;;;;;;5074224;28;20036;-71
2022/06/21 04:02:36;;;;;;;10.45;5.65;;;10.70;99.90;;;;;;5100617;28;20501;-71
2022/06/21 04:05:17;;;;;;;6.25;4.60;;;10.80;99.90;;;;;;5106265;28;20070;-71
2022/06/21 04:08:09;;;;;;;7.22;5.05;;;10.90;99.90;;;;;;5096551;28;20069;-71
2022/06/21 04:10:43;;;;;;;6.88;4.40;;;10.90;99.90;;;;;;5083135;28;20052;-71
2022/06/21 04:13:37;;;;;;;9.18;4.70;;;11.00;99.90;;;;;;5103649;28;20039;-71
2022/06/21 04:16:36;;;;;;;4.00;3.63;;;11.10;99.90;;;;;;5098359;28;20165;-71
2022/06/21 04:19:09;;;;;;;5.47;3.90;;;11.10;99.90;;;;;;5060552;28;20059;-70
2022/06/21 04:22:07;;;;;;;7.03;3.90;;;11.20;99.90;;;;;;5111802;28;20048;-71
2022/06/21 04:24:55;;;;;;;5.60;3.97;;;11.30;99.90;;;;;;5110082;28;20445;-71
2022/06/21 04:27:21;;;;;;;8.43;4.28;;;11.30;99.90;;;;;;5106980;28;20043;-70
2022/06/21 04:30:11;;;;;;;12.82;5.00;;;11.40;99.90;;;;;;5093878;28;20051;-70
2022/06/21 04:32:54;;;;;;;9.38;6.40;;;11.50;99.90;;;;;;5110808;28;20056;-71
2022/06/21 04:35:28;;;;;;;10.65;6.57;;;11.60;99.90;;;;;;5092457;28;20047;-71
2022/06/21 04:38:09;;;;;;;9.57;6.00;;;11.70;99.90;;;;;;5093586;28;20048;-71
2022/06/21 04:40:45;;;;;;;8.27;5.30;;;11.70;99.90;;;;;;5110314;28;20090;-71
2022/06/21 04:43:33;;;;;;;12.82;6.38;;;11.70;99.90;;;;;;5086257;28;20058;-70
2022/06/21 04:46:13;;;;;;;11.52;6.00;;;11.80;99.90;;;;;;5102899;28;20040;-71
2022/06/21 04:49:06;;;;;;;10.20;5.57;;;11.80;99.90;;;;;;5110787;28;20082;-71
2022/06/21 04:52:18;;;;;;;9.75;6.25;;;11.90;99.90;;;;;;5111968;28;20432;-71
2022/06/21 04:54:44;;;;;;;9.30;5.75;;;11.90;99.90;;;;;;5096035;28;20409;-71
2022/06/21 04:57:19;;;;;;;11.85;5.65;;;11.90;99.90;;;;;;5092845;28;20047;-71
2022/06/21 04:59:47;;;;;;;13.48;6.20;;;12.00;99.90;;;;;;5106877;28;20107;-70
2022/06/21 05:02:36;;;;;;;10.73;5.70;;;12.10;99.90;;;;;;5086491;28;20039;-71
2022/06/21 05:05:09;;;;;;;12.00;5.85;;;12.10;99.90;;;;;;5093339;28;20048;-71
2022/06/21 05:08:02;;;;;;;8.45;5.90;;;12.20;99.90;;;;;;5077118;28;20406;-71
2022/06/21 05:10:34;;;;;;;8.73;5.30;;;12.30;99.90;;;;;;5103234;28;20046;-71
2022/06/21 05:13:04;;;;;;;7.68;5.47;;;12.50;99.90;;;;;;5087162;28;20539;-71
2022/06/21 05:15:36;;;;;;;9.63;5.50;;;12.50;99.90;;;;;;5088479;28;20051;-71
2022/06/21 05:18:12;;;;;;;10.05;5.45;;;12.60;99.90;;;;;;5076792;28;20639;-71
2022/06/21 05:20:58;;;;;;;8.93;6.53;;;12.70;99.90;;;;;;5111306;28;20381;-71
2022/06/21 05:23:25;;;;;;;12.85;6.60;;;12.80;99.90;;;;;;5098644;28;20044;-70
2022/06/21 05:25:52;;;;;;;11.18;6.35;;;12.90;99.90;;;;;;5072354;28;20433;-71
2022/06/21 05:28:39;;;;;;;13.82;6.88;;;13.00;99.90;;;;;;5090382;28;20052;-71
2022/06/21 05:31:22;;;;;;;15.32;7.35;;;13.10;99.90;;;;;;5089886;28;20156;-71
2022/06/21 05:33:51;;;;;;;10.85;6.50;;;13.30;99.90;;;;;;5106098;28;20475;-71
2022/06/21 05:36:41;;;;;;;15.68;6.55;;;13.30;99.90;;;;;;5091022;28;20124;-70
2022/06/21 05:39:23;;;;;;;14.50;5.95;;;13.50;99.90;;;;;;5090389;28;20036;-71
2022/06/21 05:41:53;;;;;;;14.43;6.72;;;13.60;99.90;;;;;;5111088;28;20043;-71
2022/06/21 05:44:46;;;;;;;14.50;6.45;;;13.70;99.90;;;;;;5109655;28;20055;-71
2022/06/21 05:47:25;;;;;;;11.75;6.40;;;13.90;99.90;;;;;;5079177;28;20051;-70
2022/06/21 05:49:51;;;;;;;11.40;6.63;;;14.10;99.90;;;;;;5072205;28;20052;-71
2022/06/21 05:52:23;;;;;;;15.52;6.93;;;14.10;99.90;;;;;;5089245;28;20075;-72
2022/06/21 05:54:58;;;;;;;12.48;6.10;;;14.20;99.90;;;;;;5090184;28;20096;-71
2022/06/21 05:57:27;;;;;;;10.60;5.68;;;14.30;99.90;;;;;;5076075;28;20052;-70
2022/06/21 05:59:52;;;;;;;14.52;5.85;;;14.40;99.90;;;;;;5095322;28;20073;-71
2022/06/21 06:02:32;;;;;;;14.15;5.70;;;14.40;99.90;;;;;;5099894;28;20127;-71
2022/06/21 06:05:09;;;;;;;10.07;4.60;;;14.40;99.90;;;;;;5070698;28;20048;-71
2022/06/21 06:07:38;;;;;;;;;;;14.50;99.90;;;;;;5099737;28;20047;-71
2022/06/21 06:10:06;;;;;;;8.80;4.93;;;14.60;99.90;;;;;;5095137;28;19931;-71
2022/06/21 06:12:37;;;;;;;8.65;5.63;;;14.70;99.90;;;;;;5103534;28;20043;-72
2022/06/21 06:15:27;;;;;;;11.57;5.20;;;14.80;99.90;;;;;;5097437;28;20131;-70
2022/06/21 06:18:14;;;;;;;10.77;5.13;;;14.90;99.90;;;;;;5095631;28;20103;-70
2022/06/21 06:20:56;;;;;;;11.60;3.83;;;14.90;99.90;;;;;;5076905;28;20040;-70
2022/06/21 06:23:41;;;;;;;11.82;5.72;;;15.00;99.90;;;;;;5092929;28;20036;-70
2022/06/21 06:26:14;;;;;;;10.60;4.13;;;15.10;99.90;;;;;;5100827;28;20165;-70
2022/06/21 06:28:56;;;;;;;9.27;4.28;;;15.10;99.90;;;;;;5101700;28;20035;-70
2022/06/21 06:31:54;;;;;;;10.25;4.30;;;15.20;99.90;;;;;;5101676;28;20055;-69
2022/06/21 06:34:27;;;;;;;11.48;3.78;;;15.20;99.90;;;;;;5093586;28;20040;-71
2022/06/21 06:37:00;;;;;;;8.20;3.20;;;15.30;99.90;;;;;;5081918;28;20078;-71
2022/06/21 06:39:34;;;;;;;7.65;2.50;;;15.40;99.90;;;;;;5091011;28;20040;-70
2022/06/21 06:42:12;;;;;;;8.02;2.60;;;15.30;99.90;;;;;;5098461;28;20092;-71
2022/06/21 06:44:59;;;;;;;8.18;2.60;;;15.30;99.90;;;;;;5077528;28;20434;-70
2022/06/21 06:47:39;;;;;;;10.85;2.53;;;15.30;99.90;;;;;;5074020;28;20043;-70
2022/06/21 06:50:14;;;;;;;7.30;2.47;;;15.40;99.90;;;;;;5099490;28;20071;-70
2022/06/21 06:52:55;;;;;;;6.88;2.50;;;15.60;99.90;;;;;;5098231;28;20043;-70
2022/06/21 06:55:33;;;;;;;13.82;2.88;;;15.70;99.90;;;;;;5071322;28;21096;-70
2022/06/21 06:58:10;;;;;;;9.35;2.30;;;15.70;99.90;;;;;;5076290;28;20122;-70
2022/06/21 07:00:47;;;;;;;7.78;2.45;;;15.70;99.90;;;;;;5095107;28;20044;-70
2022/06/21 07:03:43;;;;;;;9.80;2.67;;;15.70;99.90;;;;;;5087827;28;20040;-70
2022/06/21 07:06:19;;;;;;;8.18;3.00;;;15.70;99.90;;;;;;5067576;28;20327;-70
2022/06/21 07:08:50;;;;;;;12.50;2.65;;;15.70;99.90;;;;;;5084303;28;20059;-70
2022/06/21 07:11:38;;;;;;;6.95;2.63;;;15.70;99.90;;;;;;5093048;28;20036;-70
2022/06/21 07:14:11;;;;;;;7.35;2.38;;;15.70;99.90;;;;;;5086144;28;20043;-70
2022/06/21 07:16:39;;;;;;;10.50;2.63;;;15.70;99.90;;;;;;5074579;28;20047;-70
2022/06/21 07:19:07;;;;;;;7.25;2.45;;;15.80;99.90;;;;;;5105755;28;20047;-70
2022/06/21 07:21:34;;;;;;;6.05;2.42;;;15.80;99.90;;;;;;5085416;28;20051;-71
2022/06/21 07:23:59;;;;;;;9.32;2.45;;;15.90;99.90;;;;;;5094302;28;20107;-70
2022/06/21 07:26:40;;;;;;;8.15;2.40;;;16.00;99.90;;;;;;5103775;28;20150;-71
2022/06/21 07:29:16;;;;;;;7.75;2.20;;;16.00;99.90;;;;;;5091099;28;20741;-71
2022/06/21 07:32:09;;;;;;;7.97;2.92;;;16.00;99.90;;;;;;5078144;28;20056;-73
2022/06/21 07:34:48;;;;;;;11.77;3.10;;;16.00;99.90;;;;;;5088406;28;20094;-73
2022/06/21 07:37:52;;;;;;;8.85;3.92;;;16.00;99.90;;;;;;5086569;28;20063;-73
2022/06/21 07:40:34;;;;;;;10.73;3.10;;;16.00;99.90;;;;;;5082129;28;20047;-72
2022/06/21 07:43:35;;;;;;;8.32;3.65;;;16.10;99.90;;;;;;5106240;28;20082;-73
2022/06/21 07:46:03;;;;;;;7.57;3.38;;;16.10;99.90;;;;;;5041566;28;20071;-74
2022/06/21 07:48:40;;;;;;;9.15;3.60;;;16.20;99.90;;;;;;5094882;28;20105;-73
2022/06/21 07:51:10;;;;;;;14.43;4.18;;;16.20;99.90;;;;;;5080510;28;20069;-74
2022/06/21 07:54:01;;;;;;;8.95;3.13;;;16.30;99.90;;;;;;5107303;28;20044;-72
2022/06/21 07:56:35;;;;;;;9.77;3.70;;;16.40;99.90;;;;;;5101427;28;20140;-74
2022/06/21 07:59:09;;;;;;;11.50;4.47;;;16.60;99.90;;;;;;5083993;28;20044;-71
2022/06/21 08:07:20;;;;;;;15.32;6.38;;;17.00;99.90;;;;;;5072837;28;20781;-72
2022/06/21 08:09:56;;;;;;;9.75;4.10;;;17.10;99.90;;;;;;5092360;28;20449;-71
2022/06/21 08:12:21;;;;;;;7.22;2.88;;;17.20;99.90;;;;;;5083622;28;20105;-76
2022/06/21 08:14:47;;;;;;;5.57;2.35;;;17.30;99.90;;;;;;5099246;28;20406;-75
2022/06/21 08:17:51;;;;;;;7.97;3.30;;;17.50;99.90;;;;;;5100423;28;20059;-76
2022/06/21 08:20:32;;;;;;;7.28;2.40;;;17.60;99.90;;;;;;5089152;28;20048;-75
2022/06/21 08:23:13;;;;;;;7.53;2.33;;;17.60;99.90;;;;;;5106867;28;20055;-74
2022/06/21 08:25:53;;;;;;;5.18;2.30;;;17.80;99.90;;;;;;5087813;28;20047;-72
2022/06/21 08:28:24;;;;;;;8.63;2.42;;;17.80;99.90;;;;;;5079009;28;20050;-75
2022/06/21 08:31:23;;;;;;;10.00;2.72;;;17.90;99.90;;;;;;5080006;28;20075;-73
2022/06/21 08:33:57;;;;;;;5.32;2.00;;;18.00;99.90;;;;;;5082724;28;20534;-74
2022/06/21 08:36:50;;;;;;;7.00;1.73;;;18.00;99.90;;;;;;5099402;28;20028;-75
2022/06/21 08:39:28;;;;;;;7.90;2.10;;;18.10;99.90;;;;;;5085447;28;20052;-74
2022/06/21 08:42:21;;;;;;;8.30;2.38;;;18.20;99.90;;;;;;5087281;28;20173;-73
2022/06/21 08:47:53;;;;;;;9.52;2.60;;;18.50;99.90;;;;;;5072415;28;20051;-73
2022/06/21 08:50:39;;;;;;;8.07;2.40;;;18.50;99.90;;;;;;5103172;28;20040;-73
2022/06/21 08:53:14;;;;;;;8.02;3.05;;;18.50;99.90;;;;;;5107708;28;20035;-73
2022/06/21 08:56:08;;;;;;;9.88;3.00;;;18.50;99.90;;;;;;5074127;28;20052;-74
2022/06/21 08:58:54;;;;;;;7.55;2.60;;;18.50;99.90;;;;;;5072626;28;20055;-74
2022/06/21 09:01:48;;;;;;;8.77;2.42;;;18.40;99.90;;;;;;5073805;28;20063;-77
2022/06/21 09:04:33;;;;;;;10.82;3.00;;;18.30;99.90;;;;;;5075011;28;20040;-76
2022/06/21 09:07:12;;;;;;;10.55;2.55;;;18.30;99.90;;;;;;5093011;28;20075;-76
2022/06/21 09:09:44;;;;;;;11.40;2.85;;;18.40;99.90;;;;;;5090151;28;20502;-71
2022/06/21 09:12:48;;;;;;;7.18;2.47;;;18.40;99.90;;;;;;5101098;28;20903;-73
2022/06/21 09:15:52;;;;;;;7.70;2.80;;;18.60;99.90;;;;;;5078965;28;20063;-72
2022/06/21 09:18:41;;;;;;;6.95;2.60;;;18.80;99.90;;;;;;5091706;28;20090;-72
2022/06/21 09:21:36;;;;;;;8.32;2.40;;;18.90;99.90;;;;;;5111073;28;20075;-72
2022/06/21 09:24:14;;;;;;;9.20;2.45;;;19.00;99.90;;;;;;5019230;28;20049;-72
2022/06/21 09:26:48;;;;;;;5.15;2.33;;;19.10;99.90;;;;;;5092144;28;20071;-75
2022/06/21 09:29:40;;;;;;;8.90;2.97;;;19.20;99.90;;;;;;5094971;28;20105;-72
2022/06/21 09:32:44;;;;;;;6.32;2.17;;;19.20;99.90;;;;;;5071265;28;20055;-74
2022/06/21 09:35:47;;;;;;;7.47;2.03;;;19.40;99.90;;;;;;5048695;28;20051;-76
2022/06/21 09:38:26;;;;;;;8.40;2.72;;;19.50;99.90;;;;;;5089899;28;20086;-76
2022/06/21 09:41:11;;;;;;;9.27;2.10;;;19.50;99.90;;;;;;5079327;28;20040;-76
2022/06/21 09:43:53;;;;;;;4.90;1.60;;;19.60;99.90;;;;;;5106524;28;20043;-77
2022/06/21 09:46:37;;;;;;;10.07;1.80;;;19.60;99.90;;;;;;5104265;28;20035;-76
2022/06/21 09:49:25;;;;;;;8.05;2.30;;;19.60;99.90;;;;;;5085404;28;20062;-76
2022/06/21 09:52:09;;;;;;;6.78;2.00;;;19.60;99.90;;;;;;5103861;28;20490;-76
2022/06/21 09:54:37;;;;;;;6.32;2.00;;;19.60;99.90;;;;;;5102552;28;20664;-77
2022/06/21 09:57:26;;;;;;;6.80;2.17;;;19.60;99.90;;;;;;5092197;28;20185;-77
2022/06/21 10:00:09;;;;;;;4.18;1.80;;;19.60;99.90;;;;;;5091362;28;20483;-75
2022/06/21 10:03:21;;;;;;;4.55;1.70;;;19.70;99.90;;;;;;5110254;28;20554;-75
2022/06/21 10:08:34;;;;;;;6.63;1.60;;;19.80;99.90;;;;;;5614827;22;20049;-76
2022/06/21 10:10:59;;;;;;;;;;;20.00;99.90;;;;;;5066253;28;20059;-75
2022/06/21 10:13:28;;;;;;;4.30;2.30;;;20.10;99.90;;;;;;5066658;28;20375;-74
2022/06/21 10:16:23;;;;;;;5.10;1.73;;;20.20;99.90;;;;;;5059088;28;20097;-75
2022/06/21 10:19:00;;;;;;;4.60;1.50;;;20.40;99.90;;;;;;5035577;28;20503;-76
2022/06/21 10:21:44;;;;;;;7.25;1.92;;;20.40;99.90;;;;;;5063179;28;20072;-73
2022/06/21 10:24:13;;;;;;;5.00;1.92;;;20.30;99.90;;;;;;5056933;28;20048;-72
2022/06/21 10:27:09;;;;;;;5.65;1.60;;;20.10;99.90;;;;;;5067178;28;20044;-72
2022/06/21 10:29:56;;;;;;;4.90;1.80;;;20.10;99.90;;;;;;5053538;28;20461;-74
2022/06/21 10:32:37;;;;;;;4.72;1.60;;;20.20;99.90;;;;;;5063289;28;20136;-74
2022/06/21 10:35:27;;;;;;;5.32;1.83;;;20.10;99.90;;;;;;5064416;28;20652;-75
2022/06/21 10:38:02;;;;;;;6.15;1.80;;;20.20;99.90;;;;;;5055584;28;20041;-74
2022/06/21 10:40:43;;;;;;;4.68;1.63;;;20.40;99.90;;;;;;5062343;28;20083;-74
2022/06/21 10:43:45;;;;;;;7.32;1.60;;;20.50;99.90;;;;;;5059930;28;20037;-74
2022/06/21 10:46:26;;;;;;;6.38;1.70;;;20.70;99.90;;;;;;5060714;28;20048;-74
2022/06/21 10:49:14;;;;;;;5.22;1.38;;;20.70;99.90;;;;;;5057985;28;20055;-73
2022/06/21 10:52:02;;;;;;;7.47;1.48;;;20.80;98.30;;;;;;5059990;28;20040;-74
2022/06/21 10:54:48;;;;;;;5.85;1.67;;;20.80;96.80;;;;;;5065900;28;20113;-74
2022/06/21 10:57:42;;;;;;;4.28;1.48;;;20.90;97.00;;;;;;5063760;28;20878;-74
2022/06/21 11:03:31;;;;;;;5.25;1.48;;;21.10;99.10;;;;;;5055567;28;20041;-75
2022/06/21 11:06:01;;;;;;;3.53;1.42;;;21.30;96.60;;;;;;5056093;28;20053;-74
2022/06/21 11:08:45;;;;;;;4.22;1.30;;;21.40;95.60;;;;;;5063695;28;20044;-75
2022/06/21 11:11:31;;;;;;;4.85;1.67;;;21.40;91.70;;;;;;5059168;28;20045;-74
2022/06/21 11:14:09;;;;;;;5.82;1.58;;;21.40;91.20;;;;;;5061058;28;20606;-73
2022/06/21 11:16:53;;;;;;;3.17;1.30;;;21.50;91.70;;;;;;5057381;28;20526;-74
2022/06/21 11:19:22;;;;;;;4.10;1.20;;;21.50;87.00;;;;;;5063786;28;20401;-75
2022/06/21 11:22:30;;;;;;;7.22;1.58;;;21.60;92.70;;;;;;5060086;28;21106;-74
2022/06/21 11:25:26;;;;;;;4.53;1.38;;;21.70;93.50;;;;;;5061938;28;20097;-74
2022/06/21 11:28:13;;;;;;;4.60;1.20;;;21.80;84.00;;;;;;5058193;28;20052;-73
2022/06/21 11:31:02;;;;;;;4.18;1.10;;;21.90;79.00;;;;;;5062963;28;20036;-73
2022/06/21 11:33:37;;;;;;;2.78;0.90;;;22.00;76.90;;;;;;5062905;28;20048;-73
2022/06/21 11:36:25;;;;;;;3.45;1.10;;;22.00;79.00;;;;;;5060358;28;20384;-73
2022/06/21 11:39:21;;;;;;;2.13;1.00;;;22.20;90.10;;;;;;5062872;28;20099;-74
2022/06/21 11:42:10;;;;;;;3.97;1.30;;;22.40;85.50;;;;;;5058625;28;20106;-74
2022/06/21 11:44:45;;;;;;;3.22;1.25;;;22.50;83.40;;;;;;5051925;28;20227;-74
2022/06/21 11:47:21;;;;;;;4.95;1.33;;;22.70;75.40;;;;;;5060810;28;20139;-73
2022/06/21 11:49:59;;;;;;;2.70;1.13;;;22.80;71.90;;;;;;5060420;28;20076;-73
2022/06/21 11:52:40;;;;;;;3.95;1.02;;;23.00;77.60;;;;;;5060718;28;20086;-72
2022/06/21 11:55:38;;;;;;;3.63;1.40;;;23.10;67.70;;;;;;5067783;28;20068;-74
2022/06/21 11:58:31;;;;;;;2.83;1.00;;;23.10;69.90;;;;;;5061542;28;20100;-74
2022/06/21 12:01:12;;;;;;;6.53;1.60;;;23.20;67.70;;;;;;5066437;28;20053;-74
2022/06/21 12:04:04;;;;;;;3.78;1.38;;;23.20;71.30;;;;;;5062674;28;20040;-74
2022/06/21 12:06:36;;;;;;;4.13;1.40;;;23.30;74.00;;;;;;5052975;28;20404;-74
2022/06/21 12:09:31;;;;;;;4.10;1.20;;;23.20;63.70;;;;;;5064131;28;20496;-72
2022/06/21 12:12:04;;;;;;;6.38;1.70;;;23.10;62.50;;;;;;5047064;28;20056;-73
2022/06/21 12:15:02;;;;;;;4.97;1.85;;;22.90;62.10;;;;;;5059492;28;20052;-74
2022/06/21 12:17:45;;;;;;;3.58;1.23;;;22.90;64.60;;;;;;5062464;28;20052;-73
2022/06/21 12:20:19;;;;;;;4.43;1.70;;;22.90;62.30;;;;;;5047918;28;20048;-73
2022/06/21 12:22:52;;;;;;;4.57;1.40;;;22.90;65.60;;;;;;5056661;28;20044;-73
2022/06/21 12:25:20;;;;;;;3.80;1.23;;;22.80;68.00;;;;;;5050898;28;20927;-73
2022/06/21 12:27:45;;;;;;;;;;;22.80;63.50;;;;;;5065962;28;20036;-72
2022/06/21 12:30:16;;;;;;;4.40;1.37;;;22.70;60.40;;;;;;5060817;28;19924;-74
2022/06/21 12:32:43;;;;;;;4.15;1.33;;;22.60;65.00;;;;;;5060447;28;20060;-74
2022/06/21 12:35:18;;;;;;;3.40;1.33;;;22.50;64.20;;;;;;5065482;28;20495;-74
2022/06/21 12:37:53;;;;;;;6.82;2.00;;;22.50;69.10;;;;;;5054578;28;20495;-74
2022/06/21 12:40:18;;;;;;;6.78;2.00;;;22.60;72.10;;;;;;5063854;28;20051;-75
2022/06/21 12:42:53;;;;;;;6.10;2.20;;;22.50;69.60;;;;;;5062846;28;20053;-75
2022/06/21 12:45:22;;;;;;;5.78;2.03;;;22.50;75.90;;;;;;5059405;28;20044;-74
2022/06/21 12:48:06;;;;;;;5.30;1.80;;;22.50;71.00;;;;;;5061476;28;20106;-71
2022/06/21 12:50:59;;;;;;;5.93;1.90;;;22.50;68.70;;;;;;5066448;28;20045;-72
2022/06/21 12:53:50;;;;;;;4.75;1.77;;;22.50;71.90;;;;;;5067865;28;20531;-72
2022/06/21 12:56:40;;;;;;;4.13;1.52;;;22.50;72.10;;;;;;5416594;22;20011;-73
2022/06/21 12:59:17;;;;;;;4.50;1.70;;;22.50;69.90;;;;;;5012756;28;20045;-72
2022/06/21 13:02:24;;;;;;;4.53;1.65;;;22.60;74.20;;;;;;5005706;28;20054;-72
2022/06/21 13:05:18;;;;;;;7.95;2.00;;;22.70;78.60;;;;;;5003572;28;20053;-72
2022/06/21 13:08:14;;;;;;;3.17;1.60;;;22.90;76.50;;;;;;5010037;28;20438;-72
2022/06/21 13:10:52;;;;;;;6.05;1.77;;;23.10;90.20;;;;;;5006736;28;20038;-72
2022/06/21 13:13:42;;;;;;;5.35;1.80;;;23.40;81.70;;;;;;5004515;28;20394;-72
2022/06/21 13:16:14;;;;;;;7.38;2.15;;;23.70;77.60;;;;;;5016910;28;20477;-72
2022/06/21 13:19:10;;;;;;;5.93;2.08;;;23.80;70.20;;;;;;5013762;28;20519;-72
2022/06/21 13:21:44;;;;;;;5.85;1.90;;;23.80;63.90;;;;;;5006679;28;20038;-71
2022/06/21 13:24:28;;;;;;;7.03;2.20;;;23.80;65.20;;;;;;5009874;28;20096;-70
2022/06/21 13:27:19;;;;;;;5.18;1.70;;;23.70;65.80;;;;;;5005470;28;20053;-70
2022/06/21 13:29:57;;;;;;;5.68;1.73;;;23.60;67.20;;;;;;5007763;28;20052;-71
2022/06/21 13:32:32;;;;;;;5.72;1.83;;;23.50;68.70;;;;;;5000139;28;20065;-71
2022/06/21 13:35:30;;;;;;;5.05;2.63;;;23.40;65.80;;;;;;5009366;28;20481;-70
2022/06/21 13:38:11;;;;;;;5.80;2.13;;;23.30;65.30;;;;;;5003663;28;20413;-70
2022/06/21 13:40:47;;;;;;;7.07;2.38;;;23.20;65.60;;;;;;5008890;28;20080;-70
2022/06/21 13:43:39;;;;;;;5.97;2.23;;;23.20;68.00;;;;;;5006643;28;20413;-72
2022/06/21 13:46:24;;;;;;;6.07;1.90;;;23.20;65.30;;;;;;4999930;28;20742;-70
2022/06/21 13:48:55;;;;;;;5.70;1.80;;;23.30;76.00;;;;;;5001477;28;20124;-72
2022/06/21 13:51:27;;;;;;;6.15;2.45;;;23.40;71.60;;;;;;5000016;28;20042;-72
2022/06/21 13:54:14;;;;;;;5.10;1.88;;;23.50;69.20;;;;;;4998625;28;20042;-72
2022/06/21 13:56:49;;;;;;;;;;;23.60;68.30;;;;;;5006020;28;20124;-72
2022/06/21 13:59:21;;;;;;;6.93;2.20;;;23.60;65.60;;;;;;5004349;28;20044;-72
2022/06/21 14:01:51;;;;;;;3.90;1.65;;;23.70;64.60;;;;;;4999826;28;20397;-70